createdAt,value
2022-09-04T00:01:53.104Z,99423.53
2022-09-04T00:04:31.854Z,99428.00
2022-09-04T00:07:09.760Z,99421.00
2022-09-04T00:09:47.393Z,99421.75
2022-09-04T00:12:16.525Z,99426.09
2022-09-04T00:14:50.238Z,99419.94
2022-09-04T00:17:23.940Z,99423.34
2022-09-04T00:19:59.498Z,99427.47
2022-09-04T00:22:32.988Z,99430.03
2022-09-04T00:25:04.499Z,99422.06
2022-09-04T00:27:44.300Z,99420.69
2022-09-04T00:30:17.270Z,99419.84
2022-09-04T00:32:50.331Z,99410.41
2022-09-04T00:35:24.110Z,99420.25
2022-09-04T00:37:57.898Z,99415.25
2022-09-04T00:40:31.546Z,99416.28
2022-09-04T00:43:17.841Z,99417.78
2022-09-04T00:46:05.122Z,99411.47
2022-09-04T00:49:04.790Z,99424.59
2022-09-04T00:51:45.676Z,99425.47
2022-09-04T00:54:36.211Z,99425.22
2022-09-04T00:57:44.611Z,99430.66
2022-09-04T01:00:16.151Z,99431.59
2022-09-04T01:03:13.731Z,99419.94
2022-09-04T01:05:57.916Z,99427.38
2022-09-04T01:08:41.970Z,99430.69
2022-09-04T01:11:19.018Z,99428.69
2022-09-04T01:13:54.840Z,99423.06
2022-09-04T01:16:28.480Z,99424.84
2022-09-04T01:19:02.342Z,99431.00
2022-09-04T01:21:55.180Z,99437.16
2022-09-04T01:24:54.137Z,99428.25
2022-09-04T01:27:28.661Z,99427.84
2022-09-04T01:30:05.696Z,99428.69
2022-09-04T01:32:45.182Z,99430.47
2022-09-04T01:35:23.230Z,99430.47
2022-09-04T01:38:00.512Z,99436.00
2022-09-04T01:40:37.941Z,99432.69
2022-09-04T01:43:12.480Z,99445.88
2022-09-04T01:45:57.546Z,99441.31
2022-09-04T01:48:37.181Z,99437.81
2022-09-04T01:51:15.403Z,99440.78
2022-09-04T01:53:51.223Z,99441.06
2022-09-04T01:56:27.059Z,99445.84
2022-09-04T01:58:58.141Z,99434.91
2022-09-04T02:01:38.548Z,99438.63
2022-09-04T02:04:18.411Z,99435.88
2022-09-04T02:06:56.841Z,99439.28
2022-09-04T02:09:37.819Z,99434.84
2022-09-04T02:12:19.045Z,99430.38
2022-09-04T02:14:59.934Z,99427.06
2022-09-04T02:17:39.352Z,99422.75
2022-09-04T02:20:19.082Z,99427.31
2022-09-04T02:22:58.421Z,99425.19
2022-09-04T02:25:31.731Z,99432.28
2022-09-04T02:28:12.719Z,99426.78
2022-09-04T02:30:47.639Z,99423.19
2022-09-04T02:33:30.492Z,99418.91
2022-09-04T02:36:03.764Z,99418.91
2022-09-04T02:38:44.019Z,99415.53
2022-09-04T02:41:22.301Z,99414.50
2022-09-04T02:44:05.206Z,99407.16
2022-09-04T02:46:43.622Z,99409.81
2022-09-04T02:49:20.362Z,99424.88
2022-09-04T02:52:02.017Z,99414.16
2022-09-04T02:54:43.588Z,99413.00
2022-09-04T02:57:27.571Z,99409.38
2022-09-04T03:00:06.991Z,99400.28
2022-09-04T03:02:43.346Z,99405.59
2022-09-04T03:05:20.360Z,99409.09
2022-09-04T03:07:56.351Z,99407.81
2022-09-04T03:10:31.171Z,99403.97
2022-09-04T03:13:06.730Z,99407.47
2022-09-04T03:15:43.550Z,99412.59
2022-09-04T03:18:20.929Z,99402.81
2022-09-04T03:20:55.083Z,99397.53
2022-09-04T03:23:30.191Z,99401.13
2022-09-04T03:26:15.031Z,99415.75
2022-09-04T03:28:54.422Z,99402.06
2022-09-04T03:31:31.076Z,99402.91
2022-09-04T03:34:13.871Z,99402.16
2022-09-04T03:36:49.989Z,99411.63
2022-09-04T03:39:26.806Z,99414.16
2022-09-04T03:42:08.791Z,99416.94
2022-09-04T03:44:50.476Z,99425.94
2022-09-04T03:47:27.292Z,99417.78
2022-09-04T03:50:10.060Z,99421.28
2022-09-04T03:52:47.471Z,99421.47
2022-09-04T03:55:35.962Z,99420.75
2022-09-04T03:58:15.093Z,99415.75
2022-09-04T04:00:57.338Z,99420.31
2022-09-04T04:03:45.459Z,99417.78
2022-09-04T04:06:24.824Z,99417.91
2022-09-04T04:09:10.451Z,99414.41
2022-09-04T04:11:53.449Z,99414.59
2022-09-04T04:14:38.403Z,99418.94
2022-09-04T04:17:21.291Z,99416.22
2022-09-04T04:20:05.445Z,99415.31
2022-09-04T04:22:55.749Z,99418.22
2022-09-04T04:25:36.082Z,99411.94
2022-09-04T04:28:20.288Z,99409.28
2022-09-04T04:30:52.595Z,99402.94
2022-09-04T04:33:45.271Z,99405.47
2022-09-04T04:36:21.780Z,99395.41
2022-09-04T04:39:01.131Z,99407.91
2022-09-04T04:41:57.424Z,99397.19
2022-09-04T04:44:54.361Z,99399.81
2022-09-04T04:47:36.671Z,99398.91
2022-09-04T04:50:15.364Z,99415.88
2022-09-04T04:53:00.802Z,99418.75
2022-09-04T04:55:40.850Z,99426.81
2022-09-04T04:58:30.111Z,99431.25
2022-09-04T05:01:07.090Z,99432.13
2022-09-04T05:03:49.710Z,99434.88
2022-09-04T05:06:23.512Z,99435.09
2022-09-04T05:08:58.984Z,99439.53
2022-09-04T05:11:38.800Z,99442.31
2022-09-04T05:14:19.618Z,99437.00
2022-09-04T05:16:56.186Z,99444.97
2022-09-04T05:19:31.663Z,99438.91
2022-09-04T05:22:11.100Z,99441.53
2022-09-04T05:24:51.898Z,99440.59
2022-09-04T05:27:49.652Z,99435.09
2022-09-04T05:30:22.521Z,99450.16
2022-09-04T05:32:58.967Z,99452.94
2022-09-04T05:35:39.369Z,99459.28
2022-09-04T05:38:14.881Z,99462.66
2022-09-04T05:40:59.270Z,99461.81
2022-09-04T05:43:43.951Z,99452.28
2022-09-04T05:46:18.269Z,99446.13
2022-09-04T05:48:58.000Z,99455.03
2022-09-04T05:52:03.768Z,99460.47
2022-09-04T05:54:50.780Z,99455.22
2022-09-04T05:57:27.930Z,99437.63
2022-09-04T06:00:12.913Z,99450.78
2022-09-04T06:03:14.786Z,99457.56
2022-09-04T06:05:52.484Z,99450.28
2022-09-04T06:08:33.771Z,99447.63
2022-09-04T06:11:23.851Z,99449.50
2022-09-04T06:14:08.081Z,99449.41
2022-09-04T06:16:54.240Z,99454.41
2022-09-04T06:19:49.701Z,99461.63
2022-09-04T06:22:44.660Z,99450.16
2022-09-04T06:25:30.893Z,99449.09
2022-09-04T06:28:24.569Z,99463.84
2022-09-04T06:31:02.987Z,99470.75
2022-09-04T06:33:45.518Z,99469.47
2022-09-04T06:36:31.361Z,99473.41
2022-09-04T06:39:18.231Z,99480.22
2022-09-04T06:42:01.431Z,99487.97
2022-09-04T06:44:45.950Z,99503.69
2022-09-04T06:47:23.271Z,99500.81
2022-09-04T06:50:13.103Z,99509.44
2022-09-04T06:52:48.572Z,99512.16
2022-09-04T06:55:27.411Z,99516.31
2022-09-04T06:58:11.741Z,99526.72
2022-09-04T07:00:53.897Z,99518.56
2022-09-04T07:03:35.520Z,99527.47
2022-09-04T07:06:13.502Z,99518.56
2022-09-04T07:08:55.770Z,99525.56
2022-09-04T07:11:39.558Z,99529.91
2022-09-04T07:14:17.529Z,99533.31
2022-09-04T07:16:56.631Z,99541.06
2022-09-04T07:19:51.623Z,99551.47
2022-09-04T07:22:47.282Z,99540.00
2022-09-04T07:25:23.302Z,99538.97
2022-09-04T07:28:08.610Z,99538.84
2022-09-04T07:30:44.331Z,99546.59
2022-09-04T07:33:20.211Z,99541.19
2022-09-04T07:35:55.732Z,99540.03
2022-09-04T07:38:38.753Z,99540.56
2022-09-04T07:41:12.959Z,99543.88
2022-09-04T07:43:54.962Z,99548.97
2022-09-04T07:46:33.672Z,99547.69
2022-09-04T07:49:10.512Z,99558.84
2022-09-04T07:51:47.652Z,99557.66
2022-09-04T07:54:36.043Z,99556.38
2022-09-04T07:57:17.703Z,99571.25
2022-09-04T08:00:02.833Z,99570.06
2022-09-04T08:02:52.470Z,99572.50
2022-09-04T08:05:24.569Z,99580.47
2022-09-04T08:08:31.614Z,99586.56
2022-09-04T08:11:17.229Z,99581.00
2022-09-04T08:14:06.364Z,99590.69
2022-09-04T08:16:44.488Z,99594.31
2022-09-04T08:19:23.361Z,99590.78
2022-09-04T08:21:54.129Z,99594.19
2022-09-04T08:24:53.109Z,99599.63
2022-09-04T08:27:44.357Z,99602.28
2022-09-04T08:30:15.731Z,99612.72
2022-09-04T08:33:11.403Z,99609.69
2022-09-04T08:35:52.001Z,99619.06
2022-09-04T08:38:38.210Z,99616.09
2022-09-04T08:41:45.456Z,99622.97
2022-09-04T08:44:47.737Z,99629.06
2022-09-04T08:47:48.223Z,99625.63
2022-09-04T08:50:44.831Z,99627.34
2022-09-04T08:53:47.361Z,99622.09
2022-09-04T08:56:27.005Z,99629.41
2022-09-04T08:59:30.740Z,99620.56
2022-09-04T09:02:28.498Z,99621.66
2022-09-04T09:05:31.901Z,99642.50
2022-09-04T09:08:17.111Z,99646.13
2022-09-04T09:11:15.780Z,99641.50
2022-09-04T09:14:07.006Z,99649.69
2022-09-04T09:16:44.324Z,99644.88
2022-09-04T09:19:23.288Z,99643.53
2022-09-04T09:22:10.762Z,99657.84
2022-09-04T09:25:08.356Z,99656.91
2022-09-04T09:28:11.531Z,99649.66
2022-09-04T09:31:12.367Z,99657.97
2022-09-04T09:34:11.332Z,99657.38
2022-09-04T09:37:03.370Z,99669.72
2022-09-04T09:40:00.046Z,99657.41
2022-09-04T09:42:57.460Z,99657.19
2022-09-04T09:45:42.181Z,99664.72
2022-09-04T09:48:44.690Z,99652.06
2022-09-04T09:51:43.811Z,99651.41
2022-09-04T09:54:38.499Z,99659.53
2022-09-04T09:57:36.410Z,99653.97
2022-09-04T10:00:09.723Z,99664.88
2022-09-04T10:03:18.950Z,99664.81
2022-09-04T10:06:14.149Z,99673.22
2022-09-04T10:09:19.641Z,99669.09
2022-09-04T10:12:17.840Z,99667.66
2022-09-04T10:15:10.619Z,99680.38
2022-09-04T10:18:07.533Z,99680.00
2022-09-04T10:20:57.021Z,99679.28
2022-09-04T10:23:41.670Z,99689.50
2022-09-04T10:26:36.160Z,99693.72
2022-09-04T10:29:29.022Z,99688.63
2022-09-04T10:32:14.873Z,99687.16
2022-09-04T10:35:03.236Z,99688.50
2022-09-04T10:37:51.150Z,99687.41
2022-09-04T10:40:49.261Z,99698.31
2022-09-04T10:43:45.081Z,99703.78
2022-09-04T10:46:23.469Z,99702.06
2022-09-04T10:49:15.531Z,99705.72
2022-09-04T10:52:05.615Z,99700.38
2022-09-04T10:55:06.856Z,99703.56
2022-09-04T10:57:50.640Z,99704.50
2022-09-04T11:00:20.029Z,99710.59
2022-09-04T11:03:13.807Z,99703.03
2022-09-04T11:06:11.129Z,99705.97
2022-09-04T11:08:58.599Z,99705.72
2022-09-04T11:11:50.373Z,99711.81
2022-09-04T11:14:36.836Z,99712.16
2022-09-04T11:17:38.622Z,99717.97
2022-09-04T11:20:33.980Z,99712.41
2022-09-04T11:23:41.275Z,99730.34
2022-09-04T11:26:39.860Z,99721.50
2022-09-04T11:29:23.199Z,99729.50
2022-09-04T11:32:14.542Z,99730.47
2022-09-04T11:35:20.301Z,99722.47
2022-09-04T11:38:00.999Z,99723.19
2022-09-04T11:41:02.300Z,99724.63
2022-09-04T11:43:53.278Z,99727.91
2022-09-04T11:46:38.400Z,99719.88
2022-09-04T11:49:40.814Z,99720.28
2022-09-04T11:52:23.929Z,99726.88
2022-09-04T11:55:10.749Z,99725.88
2022-09-04T11:57:54.913Z,99723.88
2022-09-04T12:00:23.430Z,99717.16
2022-09-04T12:03:22.010Z,99715.81
2022-09-04T12:06:03.687Z,99722.59
2022-09-04T12:08:47.920Z,99724.47
2022-09-04T12:11:39.591Z,99721.09
2022-09-04T12:14:22.960Z,99714.81
2022-09-04T12:17:17.419Z,99715.53
2022-09-04T12:20:16.012Z,99713.09
2022-09-04T12:23:08.860Z,99708.59
2022-09-04T12:25:57.953Z,99717.06
2022-09-04T12:28:50.960Z,99719.78
2022-09-04T12:31:51.574Z,99710.09
2022-09-04T12:34:38.100Z,99701.66
2022-09-04T12:37:43.589Z,99704.88
2022-09-04T12:40:34.527Z,99703.91
2022-09-04T12:43:16.686Z,99707.03
2022-09-04T12:45:58.427Z,99703.19
2022-09-04T12:48:42.801Z,99716.59
2022-09-04T12:51:14.851Z,99706.72
2022-09-04T12:53:57.859Z,99705.84
2022-09-04T12:56:43.953Z,99698.78
2022-09-04T12:59:45.803Z,99705.84
2022-09-04T13:02:26.162Z,99709.72
2022-09-04T13:05:06.500Z,99708.03
2022-09-04T13:07:48.020Z,99713.06
2022-09-04T13:10:26.973Z,99710.06
2022-09-04T13:13:05.630Z,99713.97
2022-09-04T13:15:46.960Z,99711.31
2022-09-04T13:18:27.101Z,99714.22
2022-09-04T13:21:06.581Z,99712.34
2022-09-04T13:23:48.979Z,99716.47
2022-09-04T13:26:36.040Z,99711.31
2022-09-04T13:29:17.070Z,99722.34
2022-09-04T13:32:01.610Z,99727.75
2022-09-04T13:34:41.881Z,99723.88
2022-09-04T13:37:21.303Z,99738.31
2022-09-04T13:40:04.175Z,99739.66
2022-09-04T13:43:00.200Z,99754.59
2022-09-04T13:45:30.969Z,99756.88
2022-09-04T13:48:05.398Z,99741.50
2022-09-04T13:50:41.142Z,99750.00
2022-09-04T13:53:16.920Z,99752.88
2022-09-04T13:55:50.361Z,99757.75
2022-09-04T13:58:20.159Z,99753.75
2022-09-04T14:00:52.721Z,99759.28
2022-09-04T14:03:37.989Z,99766.34
2022-09-04T14:06:10.815Z,99774.88
2022-09-04T14:08:43.130Z,99767.13
2022-09-04T14:11:46.721Z,99761.03
2022-09-04T14:14:44.890Z,99764.50
2022-09-04T14:17:13.571Z,99767.44
2022-09-04T14:19:57.637Z,99760.38
2022-09-04T14:22:42.243Z,99765.66
2022-09-04T14:25:20.330Z,99755.16
2022-09-04T14:27:56.691Z,99761.25
2022-09-04T14:30:25.810Z,99761.06
2022-09-04T14:33:13.308Z,99764.13
2022-09-04T14:35:59.946Z,99757.78
2022-09-04T14:38:41.590Z,99755.56
2022-09-04T14:41:36.128Z,99752.44
2022-09-04T14:44:18.640Z,99762.91
2022-09-04T14:46:59.344Z,99755.19
2022-09-04T14:49:31.993Z,99758.44
2022-09-04T14:52:11.038Z,99750.88
2022-09-04T14:54:43.623Z,99747.53
2022-09-04T14:57:22.681Z,99750.34
2022-09-04T15:00:03.353Z,99753.75
2022-09-04T15:02:38.111Z,99766.56
2022-09-04T15:05:15.830Z,99750.97
2022-09-04T15:07:56.806Z,99755.38
2022-09-04T15:10:33.065Z,99753.81
2022-09-04T15:13:33.591Z,99748.66
2022-09-04T15:16:15.986Z,99751.84
2022-09-04T15:18:55.954Z,99755.88
2022-09-04T15:21:33.008Z,99749.91
2022-09-04T15:24:11.572Z,99750.84
2022-09-04T15:26:46.770Z,99741.34
2022-09-04T15:29:23.041Z,99742.09
2022-09-04T15:32:00.930Z,99744.63
2022-09-04T15:34:30.879Z,99733.94
2022-09-04T15:37:22.199Z,99741.00
2022-09-04T15:40:02.151Z,99734.53
2022-09-04T15:42:39.762Z,99732.34
2022-09-04T15:45:23.634Z,99733.78
2022-09-04T15:48:11.190Z,99734.72
2022-09-04T15:50:52.701Z,99730.81
2022-09-04T15:53:28.218Z,99725.47
2022-09-04T15:56:10.475Z,99727.03
2022-09-04T15:58:51.094Z,99728.88
2022-09-04T16:01:27.591Z,99719.28
2022-09-04T16:04:02.735Z,99720.06
2022-09-04T16:06:32.940Z,99725.16
2022-09-04T16:09:09.160Z,99735.06
2022-09-04T16:11:42.661Z,99732.53
2022-09-04T16:14:18.590Z,99739.44
2022-09-04T16:16:53.164Z,99746.13
2022-09-04T16:19:28.168Z,99739.22
2022-09-04T16:22:07.462Z,99739.72
2022-09-04T16:24:42.699Z,99735.81
2022-09-04T16:27:15.040Z,99730.94
2022-09-04T16:29:49.507Z,99737.03
2022-09-04T16:32:24.458Z,99738.09
2022-09-04T16:34:56.560Z,99733.13
2022-09-04T16:37:33.645Z,99736.06
2022-09-04T16:40:13.900Z,99737.78
2022-09-04T16:42:48.219Z,99735.09
2022-09-04T16:45:21.190Z,99734.94
2022-09-04T16:47:59.204Z,99734.84
2022-09-04T16:50:46.830Z,99741.88
2022-09-04T16:53:19.100Z,99728.41
2022-09-04T16:55:57.200Z,99725.75
2022-09-04T16:58:46.181Z,99736.31
2022-09-04T17:01:18.471Z,99735.34
2022-09-04T17:04:12.646Z,99735.56
2022-09-04T17:07:02.499Z,99737.25
2022-09-04T17:09:44.300Z,99737.41
2022-09-04T17:12:24.453Z,99737.75
2022-09-04T17:15:01.951Z,99737.03
2022-09-04T17:17:32.247Z,99742.13
2022-09-04T17:20:06.483Z,99737.03
2022-09-04T17:29:03.038Z,99739.69
2022-09-04T17:29:13.397Z,99735.81
2022-09-04T17:29:15.597Z,99736.06
2022-09-04T17:31:35.329Z,99727.91
2022-09-04T17:40:33.635Z,99730.94
2022-09-04T17:40:39.727Z,99732.66
2022-09-04T17:40:53.991Z,99735.56
2022-09-04T17:43:21.893Z,99738.47
2022-09-04T17:46:07.074Z,99732.06
2022-09-04T17:48:42.300Z,99735.31
2022-09-04T17:51:17.840Z,99739.19
2022-09-04T17:53:53.399Z,99741.88
2022-09-04T17:56:28.031Z,99735.59
2022-09-04T17:59:02.849Z,99739.66
2022-09-04T18:01:36.708Z,99741.38
2022-09-04T18:04:27.460Z,99749.13
2022-09-04T18:07:35.632Z,99742.56
2022-09-04T18:10:03.030Z,99756.41
2022-09-04T18:12:37.960Z,99746.97
2022-09-04T18:15:34.024Z,99749.84
2022-09-04T18:18:13.509Z,99749.09
2022-09-04T18:20:51.656Z,99759.00
2022-09-04T18:23:51.487Z,99750.44
2022-09-04T18:26:40.786Z,99752.34
2022-09-04T18:33:22.564Z,99744.03
2022-09-04T18:37:10.646Z,99749.22
2022-09-04T18:37:18.386Z,99747.84
2022-09-04T18:38:19.795Z,99749.06
2022-09-04T18:43:46.782Z,99745.66
2022-09-04T18:50:22.646Z,99752.66
2022-09-04T18:50:44.949Z,99754.94
2022-09-04T18:50:52.397Z,99749.06
2022-09-04T18:52:20.961Z,99755.47
2022-09-04T18:54:55.671Z,99762.22
2022-09-04T18:57:31.707Z,99764.03
2022-09-04T19:00:08.688Z,99756.94
2022-09-04T19:02:52.910Z,99757.97
2022-09-04T19:05:24.247Z,99760.41
2022-09-04T19:07:57.615Z,99761.09
2022-09-04T19:10:29.001Z,99749.41
2022-09-04T19:13:03.069Z,99752.84
2022-09-04T19:15:55.707Z,99748.69
2022-09-04T19:18:27.681Z,99759.91
2022-09-04T19:21:23.621Z,99750.50
2022-09-04T19:23:58.789Z,99756.06
2022-09-04T19:26:36.244Z,99757.09
2022-09-04T19:29:13.370Z,99751.16
2022-09-04T19:31:51.645Z,99755.41
2022-09-04T19:34:28.401Z,99757.50
2022-09-04T19:37:10.922Z,99760.28
2022-09-04T19:46:01.272Z,99748.06
2022-09-04T19:46:07.511Z,99747.31
2022-09-04T19:46:17.428Z,99750.72
2022-09-04T19:48:51.060Z,99745.19
2022-09-04T19:53:30.534Z,99749.44
2022-09-04T19:54:35.968Z,99751.34
2022-09-04T19:57:32.407Z,99749.66
2022-09-04T20:00:38.382Z,99751.34
2022-09-04T20:03:02.911Z,99750.63
2022-09-04T20:05:33.810Z,99750.09
2022-09-04T20:08:08.131Z,99754.78
2022-09-04T20:10:43.818Z,99749.03
2022-09-04T20:13:23.271Z,99746.38
2022-09-04T20:16:00.400Z,99751.78
2022-09-04T20:18:33.534Z,99750.19
2022-09-04T20:21:17.090Z,99750.50
2022-09-04T20:23:53.306Z,99752.44
2022-09-04T20:26:25.668Z,99753.53
2022-09-04T20:29:05.618Z,99749.91
2022-09-04T20:31:45.056Z,99753.53
2022-09-04T20:34:25.012Z,99746.28
2022-09-04T20:37:00.398Z,99742.66
2022-09-04T20:39:36.228Z,99741.56
2022-09-04T20:42:10.890Z,99742.44
2022-09-04T20:45:01.540Z,99735.94
2022-09-04T20:52:48.819Z,99734.75
2022-09-04T20:52:50.935Z,99724.72
2022-09-04T20:53:32.519Z,99725.38
2022-09-04T20:56:20.631Z,99719.84
2022-09-04T21:03:13.348Z,99718.38
2022-09-04T21:03:21.100Z,99714.72
2022-09-04T21:05:18.515Z,99707.50
2022-09-04T21:07:52.490Z,99706.88
2022-09-04T21:10:32.111Z,99713.47
2022-09-04T21:13:13.523Z,99704.00
2022-09-04T21:15:53.134Z,99708.59
2022-09-04T21:19:27.985Z,99697.94
2022-09-04T21:21:59.689Z,99694.31
2022-09-04T21:24:52.520Z,99701.78
2022-09-04T21:27:44.720Z,99704.97
2022-09-04T21:30:17.121Z,99697.94
2022-09-04T21:33:01.674Z,99699.00
2022-09-04T21:35:55.542Z,99709.31
2022-09-04T21:38:49.599Z,99707.31
2022-09-04T21:41:40.870Z,99709.19
2022-09-04T21:44:39.120Z,99719.00
2022-09-04T21:47:23.310Z,99713.47
2022-09-04T21:50:27.239Z,99715.84
2022-09-04T21:53:17.045Z,99713.06
2022-09-04T21:57:28.818Z,99710.31
2022-09-04T22:02:39.683Z,99701.72
2022-09-04T22:02:39.897Z,99707.34
2022-09-04T22:05:08.141Z,99697.44
2022-09-04T22:11:48.388Z,99693.44
2022-09-04T22:13:37.849Z,99683.97
2022-09-04T22:13:49.212Z,99679.06
2022-09-04T22:16:34.378Z,99684.59
2022-09-04T22:19:27.940Z,99685.75
2022-09-04T22:22:06.170Z,99683.53
2022-09-04T22:25:06.929Z,99685.63
2022-09-04T22:28:07.308Z,99681.50
2022-09-04T22:30:50.331Z,99680.13
2022-09-04T22:33:48.240Z,99682.22
2022-09-04T22:37:01.085Z,99674.78
2022-09-04T22:39:57.917Z,99667.94
2022-09-04T22:42:48.462Z,99659.44
2022-09-04T22:45:45.320Z,99650.06
2022-09-04T22:48:47.872Z,99647.50
2022-09-04T22:51:44.690Z,99641.69
2022-09-04T22:54:30.290Z,99631.47
2022-09-04T22:57:03.070Z,99627.28
2022-09-04T22:59:59.459Z,99624.09
2022-09-04T23:03:07.045Z,99638.31
2022-09-04T23:05:48.849Z,99628.88
2022-09-04T23:13:42.308Z,99623.03
2022-09-04T23:13:57.803Z,99619.63
2022-09-04T23:14:45.090Z,99618.13
2022-09-04T23:17:35.909Z,99597.19
2022-09-04T23:26:33.908Z,99607.91
2022-09-04T23:26:49.408Z,99627.44
2022-09-04T23:26:58.472Z,99607.72
2022-09-04T23:29:45.257Z,99602.19
2022-09-04T23:32:32.302Z,99587.78
2022-09-04T23:35:16.996Z,99614.09
2022-09-04T23:38:16.021Z,99724.44
2022-09-04T23:40:46.994Z,99785.75
2022-09-04T23:43:37.343Z,99723.28
2022-09-04T23:46:30.152Z,99764.38
2022-09-04T23:49:14.878Z,99771.41
2022-09-04T23:51:50.153Z,99757.91
2022-09-04T23:54:49.081Z,99753.72
2022-09-04T23:57:26.902Z,99760.19
